首页
METAR-TAF:

METAR-TAF

机场 :

馬丁尼克-亞米-凱薩國際機場

法兰西堡, 馬提尼克

纬度: 14-36N, 经度: 061-00W, 海拔: 5米

当前天气观测

该预报发布于14分钟前的00:00 UTC
风速8节,风向东转东南
温度 26°C
湿度 79%
气压 1017 hPa
能见度10公里或以上
散云层高于3700英尺

METAR: TFFF 200000Z AUTO 11008KT 9999 SCT037 26/22 Q1017

时间: 20:14 (00:14 UTC)

预报

该预报发布于19小时和14分钟前的05:00 UTC
预报有效从19日的 06点(UTC)到 20日的 06点(UTC)
风速10节,风向东南
能见度10公里或以上
多云层高于2000英尺
多云层高于4000英尺
短暂存在
从 19日的 06点(UTC)到 19日的 10点(UTC)
能見度: 2000
散云层高于1300英尺, 积雨云.
阵雨
几率 40% :
短暂存在
从 19日的 06点(UTC)到 19日的 08点(UTC)
风速15节,风向多变,有时为25节阵风
能見度: 1400
多云层高于1200英尺, 积雨云.
雷暴, 小雨
几率 40% :
短暂存在
从 19日的 10点(UTC)到 19日的 14点(UTC)
能見度: 4000
多云层高于1800英尺, 塔状积云.
阵雨

TAF: TFFF 190500Z 1906/2006 13010KT 9999 BKN020 BKN040 TEMPO 1906/1910 2000 SHRA SCT013CB PROB40 TEMPO 1906/1908 VRB15G25KT 1400 -TSRA BKN012CB PROB40 TEMPO 1910/1914 4000 SHRA BKN018TCU

超过4000个机场的气象观测和天气预报(METAR&TAF报告)。

可查询的气象台以黄色和红色小点在地图上表示。

将鼠标移到小点上方,可查看气象台名称。

然后点击查看天气观测和预报。

如需切换地图:点击带黑十字的绿色按钮放大地图;点击带横线的绿色按钮缩小地图;或者点击绿色箭头查看邻近地区的地图。


METAR-TAF: